Time;durP1;ratioP1;P1;durP2;ratioP2;P2;SDS_P1;SDS_P2;PMS_P1;PMS_P2;Temp;Humidity;BMP_temperature;BMP_pressure;BME280_temperature;BME280_humidity;BME280_pressure;Samples;Min_cycle;Max_cycle;Signal;HPM_P1;HPM_P2
2021/07/03 00:01:26;;;;;;;11.25;5.57;;;;;;;18.86;97.97;98982.53;4818533;29;20081;-59
2021/07/03 00:03:51;;;;;;;8.85;5.70;;;;;;;18.86;97.88;98983.34;4817178;29;20074;-60
2021/07/03 00:06:17;;;;;;;8.77;5.47;;;;;;;18.84;97.56;98979.19;5276533;24;20485;-61
2021/07/03 00:08:43;;;;;;;7.60;5.50;;;;;;;18.83;97.73;98978.34;4822301;29;20046;-59
2021/07/03 00:11:09;;;;;;;12.23;5.72;;;;;;;18.83;97.81;98985.41;4837750;29;20050;-59
2021/07/03 00:13:35;;;;;;;11.65;5.38;;;;;;;18.83;98.02;98974.88;4837859;29;20049;-60
2021/07/03 00:16:01;;;;;;;7.32;4.95;;;;;;;18.83;98.10;98966.97;4824143;29;20057;-60
2021/07/03 00:18:27;;;;;;;8.35;5.40;;;;;;;18.79;98.26;98958.44;4837282;29;20518;-60
2021/07/03 00:20:52;;;;;;;11.25;5.57;;;;;;;18.81;98.36;98974.16;4837798;29;20052;-60
2021/07/03 00:23:18;;;;;;;10.07;5.18;;;;;;;18.80;98.52;98970.66;4837101;29;20470;-59
2021/07/03 00:25:44;;;;;;;9.60;5.88;;;;;;;18.76;98.63;98963.13;4837108;29;20049;-59
2021/07/03 00:28:10;;;;;;;10.02;5.93;;;;;;;18.82;99.00;98968.75;4841133;29;20588;-60
2021/07/03 00:30:35;;;;;;;9.68;5.75;;;;;;;18.84;98.99;98973.91;4839950;29;20413;-60
2021/07/03 00:33:09;;;;;;;9.60;6.00;;;;;;;18.83;98.67;98966.97;4840876;29;20101;-60
2021/07/03 00:35:35;;;;;;;8.70;5.53;;;;;;;18.82;98.63;98967.94;4840853;29;20137;-59
2021/07/03 00:38:01;;;;;;;10.63;5.75;;;;;;;18.82;98.61;98981.09;4836044;29;20137;-60
2021/07/03 00:40:28;;;;;;;10.43;5.35;;;;;;;18.81;98.64;98967.09;4840145;29;20128;-60
2021/07/03 00:42:55;;;;;;;7.97;4.47;;;;;;;18.82;98.54;98974.03;4823807;29;20077;-60
2021/07/03 00:45:22;;;;;;;6.47;5.20;;;;;;;18.82;98.35;98966.13;4795855;29;20057;-60
2021/07/03 00:47:48;;;;;;;7.57;4.70;;;;;;;18.82;98.08;98978.47;4821020;29;20042;-59
2021/07/03 00:50:14;;;;;;;7.20;4.80;;;;;;;18.82;97.58;98981.94;4826007;29;20050;-59
2021/07/03 00:52:43;;;;;;;9.65;4.90;;;;;;;18.82;97.58;98978.47;4827506;29;20049;-62
2021/07/03 00:58:09;;;;;;;9.50;5.88;;;;;;;18.81;97.53;98985.53;4963263;24;20089;-61
2021/07/03 01:00:35;;;;;;;8.20;6.18;;;;;;;18.81;97.61;98984.69;4834814;29;20050;-60
2021/07/03 01:03:02;;;;;;;8.57;5.78;;;;;;;18.82;97.51;98987.19;4834855;29;20058;-61
2021/07/03 01:05:28;;;;;;;7.75;5.57;;;;;;;18.80;97.60;98978.56;4819044;29;20054;-60
2021/07/03 01:07:55;;;;;;;9.45;5.55;;;;;;;18.84;97.52;98992.34;5259889;24;21032;-59
2021/07/03 01:10:23;;;;;;;12.30;5.85;;;;;;;18.85;97.43;98981.69;4787543;29;20046;-59
2021/07/03 01:12:57;;;;;;;6.60;5.40;;;;;;;18.88;97.59;98991.16;4816031;29;20058;-60
2021/07/03 01:15:24;;;;;;;6.82;5.28;;;;;;;18.89;97.15;98979.66;4804770;29;20475;-60
2021/07/03 01:17:53;;;;;;;8.70;5.47;;;;;;;18.90;96.83;98987.41;4805104;29;20058;-60
2021/07/03 01:20:19;;;;;;;8.68;5.40;;;;;;;18.91;97.06;98975.94;4818139;29;20046;-59
2021/07/03 01:22:46;;;;;;;7.50;4.90;;;;;;;18.91;96.97;98975.09;4816720;29;20053;-59
2021/07/03 01:25:14;;;;;;;6.10;4.55;;;;;;;18.91;97.06;98977.72;4818187;29;20045;-60
2021/07/03 01:27:42;;;;;;;6.15;4.05;;;;;;;18.90;96.76;98973.41;4802521;29;20099;-59
2021/07/03 01:30:11;;;;;;;7.25;4.72;;;;;;;18.89;96.74;98982.28;4801276;29;20049;-60
2021/07/03 01:32:37;;;;;;;4.50;4.00;;;;;;;18.87;96.78;98977.13;4789402;29;20046;-61
2021/07/03 01:35:04;;;;;;;5.65;4.45;;;;;;;18.87;96.93;98982.41;4804745;29;20042;-59
2021/07/03 01:37:33;;;;;;;6.40;4.60;;;;;;;18.86;96.97;98975.47;4804955;29;20150;-62
2021/07/03 01:40:00;;;;;;;6.88;4.90;;;;;;;18.90;97.18;98981.31;4794035;29;20066;-59
2021/07/03 01:42:27;;;;;;;11.07;4.93;;;;;;;18.92;97.05;98976.78;4800049;29;20434;-60
2021/07/03 01:44:54;;;;;;;7.80;4.18;;;;;;;18.93;97.06;98981.09;4807896;29;20133;-61
2021/07/03 01:47:21;;;;;;;7.95;4.00;;;;;;;18.94;96.73;98983.59;4809251;29;20133;-61
2021/07/03 01:49:47;;;;;;;6.85;4.10;;;;;;;18.96;96.28;98984.31;4804618;29;20161;-61
2021/07/03 01:52:19;;;;;;;5.55;3.47;;;;;;;18.97;96.18;98991.25;4805160;29;20053;-61
2021/07/03 01:54:46;;;;;;;5.78;3.90;;;;;;;18.98;96.32;98986.81;4804411;29;20141;-60
2021/07/03 01:57:13;;;;;;;6.65;3.63;;;;;;;18.99;96.47;98991.97;4819871;29;20427;-60
2021/07/03 01:59:58;;;;;;;6.78;3.70;;;;;;;19.01;96.36;98991.84;4820377;29;20046;-59
2021/07/03 02:02:25;;;;;;;6.57;4.30;;;;;;;19.01;96.48;98990.03;4821248;29;20492;-60
2021/07/03 02:04:51;;;;;;;7.25;3.90;;;;;;;19.01;96.45;98989.19;4803767;29;20103;-59
2021/07/03 02:07:17;;;;;;;7.22;4.35;;;;;;;19.03;96.52;98993.41;4820702;29;20609;-60
2021/07/03 02:09:43;;;;;;;7.25;4.32;;;;;;;19.03;96.25;98998.66;4803539;29;20050;-58
2021/07/03 02:12:10;;;;;;;7.85;4.60;;;;;;;19.05;96.22;99003.81;4822242;29;20054;-60
2021/07/03 02:14:48;;;;;;;31.02;14.07;;;;;;;19.07;96.32;98993.97;4808913;29;20220;-60
2021/07/03 02:17:29;;;;;;;21.75;11.13;;;;;;;19.11;96.03;98997.19;4820246;29;20046;-60
2021/07/03 02:19:57;;;;;;;8.75;5.55;;;;;;;19.14;96.00;98989.06;4803209;29;20047;-60
2021/07/03 02:22:32;;;;;;;10.63;5.07;;;;;;;19.17;95.25;98994.06;4801050;29;20058;-60
2021/07/03 02:24:58;;;;;;;11.10;5.55;;;;;;;19.18;94.93;98987.84;4803634;29;20050;-60
2021/07/03 02:27:24;;;;;;;10.05;4.85;;;;;;;19.24;94.27;98992.63;4820988;29;20054;-60
2021/07/03 02:29:55;;;;;;;9.63;4.90;;;;;;;19.26;93.81;98988.91;4805083;29;20192;-60
2021/07/03 02:32:21;;;;;;;7.85;4.15;;;;;;;19.31;93.61;98983.28;4824112;29;20136;-60
2021/07/03 02:34:47;;;;;;;9.63;4.88;;;;;;;19.33;93.64;98982.19;4824688;29;20051;-60
2021/07/03 02:37:14;;;;;;;7.80;6.03;;;;;;;19.34;93.38;98983.00;4808219;29;20061;-61
2021/07/03 02:39:42;;;;;;;10.43;5.88;;;;;;;19.35;93.16;98984.69;4807005;29;20046;-61
2021/07/03 02:42:08;;;;;;;9.05;5.10;;;;;;;19.35;93.20;98993.44;4807524;29;20418;-60
2021/07/03 02:44:34;;;;;;;10.10;5.18;;;;;;;19.39;93.11;98991.38;4808769;29;20083;-61
2021/07/03 02:47:00;;;;;;;8.40;4.93;;;;;;;19.43;92.84;98983.09;4808074;29;20123;-61
2021/07/03 02:49:27;;;;;;;12.50;5.47;;;;;;;19.54;92.21;98984.88;4804673;29;20045;-61
2021/07/03 02:51:53;;;;;;;12.68;5.38;;;;;;;19.62;91.47;98989.53;4824667;29;20050;-61
2021/07/03 02:54:22;;;;;;;6.93;4.63;;;;;;;19.66;91.29;98988.31;4808245;29;20085;-61
2021/07/03 02:56:48;;;;;;;10.85;5.13;;;;;;;19.71;90.85;98988.78;4808201;29;20050;-61
2021/07/03 02:59:14;;;;;;;6.53;4.55;;;;;;;19.75;90.22;98996.31;4806909;29;20049;-61
2021/07/03 03:01:41;;;;;;;6.43;3.83;;;;;;;19.78;89.47;98992.59;4807386;29;20069;-61
2021/07/03 03:04:09;;;;;;;11.30;4.43;;;;;;;19.77;89.82;99001.47;4824298;29;20080;-61
2021/07/03 03:06:35;;;;;;;8.05;4.55;;;;;;;19.76;89.25;98994.50;4807849;29;20483;-61
2021/07/03 03:09:01;;;;;;;13.57;4.53;;;;;;;19.77;89.10;98997.03;4824031;29;20058;-61
2021/07/03 03:11:28;;;;;;;7.90;3.90;;;;;;;19.79;88.67;99008.28;4823144;29;20060;-61
2021/07/03 03:13:54;;;;;;;7.90;3.72;;;;;;;19.84;88.19;99014.00;4824306;29;20042;-61
2021/07/03 03:16:21;;;;;;;6.15;3.60;;;;;;;19.88;87.85;99015.44;4807088;29;20054;-61
2021/07/03 03:18:47;;;;;;;10.82;4.72;;;;;;;19.92;87.57;99013.38;4823629;29;20054;-60
2021/07/03 03:21:13;;;;;;;7.22;4.03;;;;;;;19.94;87.15;99015.91;4807790;29;20054;-61
2021/07/03 03:23:41;;;;;;;6.47;3.78;;;;;;;19.94;86.77;99010.63;4823409;29;20065;-61
2021/07/03 03:26:07;;;;;;;12.35;4.35;;;;;;;19.95;86.52;99012.25;4807110;29;20134;-61
2021/07/03 03:28:38;;;;;;;9.65;4.20;;;;;;;19.94;86.50;99016.69;4807773;29;20050;-59
2021/07/03 03:31:05;;;;;;;10.50;3.85;;;;;;;19.98;86.27;99014.66;4806692;29;20049;-61
2021/07/03 03:33:37;;;;;;;12.75;3.60;;;;;;;20.02;86.14;99016.06;4807165;29;20472;-61
2021/07/03 03:36:03;;;;;;;7.45;4.68;;;;;;;20.07;85.87;99020.00;4823323;29;20050;-61
2021/07/03 03:38:30;;;;;;;8.48;5.10;;;;;;;20.13;85.78;99018.66;4807171;29;20476;-60
2021/07/03 03:40:56;;;;;;;11.73;4.20;;;;;;;20.21;84.93;99013.56;4823377;29;20660;-61
2021/07/03 03:43:22;;;;;;;5.07;3.20;;;;;;;20.24;84.37;99024.72;4807317;29;20074;-61
2021/07/03 03:45:48;;;;;;;7.20;4.55;;;;;;;20.26;84.07;99021.91;4823382;29;20042;-61
2021/07/03 03:48:15;;;;;;;5.20;3.60;;;;;;;20.27;84.04;99016.53;4806708;29;20046;-60
2021/07/03 03:50:48;;;;;;;12.50;4.00;;;;;;;20.24;83.94;99014.16;4806644;29;20608;-60
2021/07/03 03:53:13;;;;;;;9.63;6.20;;;;;;;20.24;84.12;99021.22;4807251;29;20128;-60
2021/07/03 03:55:41;;;;;;;6.88;5.55;;;;;;;20.23;84.29;99014.28;4806907;29;20049;-60
2021/07/03 03:58:09;;;;;;;6.60;3.60;;;;;;;20.28;83.96;99017.34;4806222;29;20058;-61
2021/07/03 04:00:37;;;;;;;3.97;3.38;;;;;;;20.34;83.06;99024.78;4802178;29;20115;-59
2021/07/03 04:03:04;;;;;;;6.13;3.30;;;;;;;20.39;82.63;99019.97;4820820;29;20582;-60
2021/07/03 04:05:39;;;;;;;6.93;4.20;;;;;;;20.41;82.28;99023.28;4805831;29;20046;-60
2021/07/03 04:08:05;;;;;;;6.07;3.90;;;;;;;20.43;81.72;99028.44;4804908;29;20050;-61
2021/07/03 04:10:31;;;;;;;8.77;4.10;;;;;;;20.53;80.95;99021.41;4818829;29;20054;-60
2021/07/03 04:12:57;;;;;;;6.45;3.55;;;;;;;20.59;80.60;99032.28;4801237;29;20517;-61
2021/07/03 04:15:22;;;;;;;6.10;3.47;;;;;;;20.58;80.57;99035.91;4818961;29;20148;-60
2021/07/03 04:20:45;;;;;;;5.57;3.47;;;;;;;20.49;80.56;99044.63;4724043;27;20063;-61
2021/07/03 04:23:11;;;;;;;6.13;4.07;;;;;;;20.50;80.16;99042.81;4789620;29;20035;-61
2021/07/03 04:25:37;;;;;;;4.97;3.42;;;;;;;20.49;79.81;99035.84;4781831;29;20035;-61
2021/07/03 04:28:03;;;;;;;6.53;4.47;;;;;;;20.56;79.07;99037.84;4785070;29;20083;-61
2021/07/03 04:30:28;;;;;;;4.05;3.10;;;;;;;20.63;78.50;99038.97;4782088;29;20086;-60
2021/07/03 04:32:54;;;;;;;5.38;3.35;;;;;;;20.70;77.87;99041.94;4781253;29;20710;-59
2021/07/03 04:35:21;;;;;;;4.53;3.17;;;;;;;20.75;77.24;99033.63;4782170;29;20507;-60
2021/07/03 04:37:47;;;;;;;4.50;2.63;;;;;;;20.78;76.69;99034.19;4781407;29;20103;-62
2021/07/03 04:40:13;;;;;;;8.40;3.47;;;;;;;20.82;76.45;99034.75;5271028;24;20066;-61
2021/07/03 04:42:39;;;;;;;6.80;3.55;;;;;;;20.88;76.05;99037.72;4790956;29;20486;-60
2021/07/03 04:45:05;;;;;;;5.93;3.50;;;;;;;20.98;75.18;99038.59;4787932;29;20051;-61
2021/07/03 04:47:34;;;;;;;10.43;5.90;;;;;;;21.07;74.46;99034.28;4781572;29;20055;-61
2021/07/03 04:50:00;;;;;;;5.45;3.00;;;;;;;21.16;73.79;99040.59;4785975;29;20134;-60
2021/07/03 04:52:28;;;;;;;5.82;2.83;;;;;;;21.21;73.44;99033.94;4793914;29;20081;-61
2021/07/03 04:54:55;;;;;;;6.15;2.90;;;;;;;21.18;73.65;99030.75;4788524;29;20062;-61
2021/07/03 04:57:21;;;;;;;3.60;2.80;;;;;;;21.18;73.35;99028.09;4782346;29;20059;-61
2021/07/03 05:02:41;;;;;;;4.20;2.50;;;;;;;21.48;72.31;99036.78;4881102;24;20445;-61
2021/07/03 05:05:08;;;;;;;4.82;3.15;;;;;;;21.59;71.80;99037.63;4839201;29;20046;-60
2021/07/03 05:07:33;;;;;;;3.08;2.65;;;;;;;21.67;71.05;99040.44;4835007;29;20049;-61
2021/07/03 05:10:07;;;;;;;6.32;2.60;;;;;;;21.69;70.98;99031.38;4822717;29;20098;-62
2021/07/03 05:12:33;;;;;;;6.38;3.63;;;;;;;21.58;70.71;99028.00;4841726;29;20058;-62
2021/07/03 05:14:58;;;;;;;5.07;3.53;;;;;;;21.42;71.24;99029.38;4846309;29;20045;-62
2021/07/03 05:17:24;;;;;;;6.03;2.85;;;;;;;21.33;71.42;99026.72;4853940;29;20599;-59
2021/07/03 05:19:50;;;;;;;4.20;2.72;;;;;;;21.23;71.65;99025.88;4840315;29;20052;-60
2021/07/03 05:22:15;;;;;;;6.00;3.20;;;;;;;21.14;71.84;99032.81;4837939;29;20050;-60
2021/07/03 05:24:41;;;;;;;5.45;3.80;;;;;;;21.11;72.11;99028.59;4834985;29;20049;-61
2021/07/03 05:27:07;;;;;;;5.65;3.78;;;;;;;21.09;72.00;99033.16;4835798;29;20054;-61
2021/07/03 05:29:33;;;;;;;3.25;2.80;;;;;;;21.09;71.61;99041.09;4832862;29;20053;-60
2021/07/03 05:31:58;;;;;;;5.60;2.60;;;;;;;21.09;71.56;99040.28;4834728;29;20126;-60
2021/07/03 05:34:24;;;;;;;5.03;2.53;;;;;;;21.18;71.39;99047.44;4835132;29;20086;-61
2021/07/03 05:36:50;;;;;;;4.70;2.53;;;;;;;21.28;71.19;99044.81;4835927;29;20106;-61
2021/07/03 05:39:16;;;;;;;4.60;3.90;;;;;;;21.38;70.87;99050.97;4836287;29;20098;-61
2021/07/03 05:41:42;;;;;;;6.68;3.08;;;;;;;21.41;70.03;99051.50;4824310;29;20061;-60
2021/07/03 05:44:08;;;;;;;12.85;6.57;;;;;;;21.43;70.29;99051.38;4835925;29;20053;-60
2021/07/03 05:46:33;;;;;;;4.70;2.67;;;;;;;21.50;69.99;99049.88;4818604;29;20053;-61
2021/07/03 05:48:59;;;;;;;5.80;3.22;;;;;;;21.64;68.57;99048.63;4835045;29;20053;-62
2021/07/03 05:51:27;;;;;;;4.55;2.90;;;;;;;21.80;68.64;99047.13;4846257;29;20386;-62
2021/07/03 05:53:53;;;;;;;14.15;7.63;;;;;;;22.13;67.56;99050.34;4840563;29;20184;-59
2021/07/03 05:56:19;;;;;;;8.88;5.78;;;;;;;22.46;65.38;99047.19;4840077;29;20045;-61
2021/07/03 05:58:46;;;;;;;4.25;2.75;;;;;;;22.69;64.39;99050.34;4843646;29;20412;-60
2021/07/03 06:01:11;;;;;;;4.22;2.00;;;;;;;22.79;63.06;99048.53;4844876;29;20054;-62
2021/07/03 06:03:37;;;;;;;2.05;1.85;;;;;;;22.83;61.43;99049.06;4834826;29;20390;-59
2021/07/03 06:06:02;;;;;;;5.53;2.75;;;;;;;22.85;61.72;99047.94;4827972;29;20068;-60
2021/07/03 06:08:28;;;;;;;6.80;4.05;;;;;;;23.05;60.22;99038.94;4835529;29;20488;-61
2021/07/03 06:10:54;;;;;;;2.20;1.60;;;;;;;23.43;59.09;99029.91;4836560;29;20046;-61
2021/07/03 06:13:19;;;;;;;4.07;1.70;;;;;;;23.83;57.53;99029.50;4835880;29;20038;-60
2021/07/03 06:15:45;;;;;;;6.50;2.38;;;;;;;24.18;56.83;99036.63;4849863;29;20049;-61
2021/07/03 06:18:11;;;;;;;7.28;3.20;;;;;;;24.43;56.39;99030.50;4856354;29;20057;-60
2021/07/03 06:20:39;;;;;;;4.05;2.63;;;;;;;24.65;56.37;99041.59;4847451;29;20053;-60
2021/07/03 06:23:05;;;;;;;4.28;2.20;;;;;;;24.70;56.66;99039.31;4841355;29;20049;-62
2021/07/03 06:25:31;;;;;;;7.13;3.20;;;;;;;24.52;56.79;99039.34;4853133;29;20394;-61
2021/07/03 06:27:57;;;;;;;6.28;2.50;;;;;;;24.24;57.53;99038.66;4825857;29;20108;-61
2021/07/03 06:30:22;;;;;;;7.65;3.30;;;;;;;24.01;58.56;99040.13;4845298;29;20088;-60
2021/07/03 06:32:48;;;;;;;5.53;2.67;;;;;;;23.84;58.93;99044.44;4848643;29;20053;-60
2021/07/03 06:35:14;;;;;;;10.15;3.10;;;;;;;23.77;59.16;99042.53;4838439;29;20045;-60
2021/07/03 06:37:39;;;;;;;6.80;3.00;;;;;;;23.79;58.47;99048.53;4850677;29;20075;-61
2021/07/03 06:40:06;;;;;;;8.63;3.22;;;;;;;23.99;57.38;99042.91;4842840;29;20562;-60
2021/07/03 06:42:31;;;;;;;3.92;2.85;;;;;;;24.48;56.24;99040.66;4860551;29;20118;-61
2021/07/03 06:44:57;;;;;;;3.40;2.22;;;;;;;25.25;53.57;99050.38;4827778;29;20038;-61
2021/07/03 06:47:23;;;;;;;4.38;2.47;;;;;;;26.08;51.04;99054.72;4820753;29;20121;-62
2021/07/03 06:49:48;;;;;;;2.90;2.60;;;;;;;26.98;48.37;99058.97;4842994;29;20045;-60
2021/07/03 06:52:14;;;;;;;14.00;6.32;;;;;;;27.92;46.66;99062.47;4842739;29;20209;-63
2021/07/03 06:54:40;;;;;;;5.90;3.33;;;;;;;29.02;43.88;99049.28;4858073;29;20459;-62
2021/07/03 06:57:08;;;;;;;4.20;2.95;;;;;;;28.89;43.68;99049.06;4844533;29;20045;-62
2021/07/03 06:59:34;;;;;;;11.40;4.97;;;;;;;28.94;43.56;99043.19;4840583;29;20049;-60
2021/07/03 07:02:00;;;;;;;3.35;2.60;;;;;;;30.21;40.69;99056.81;4840722;29;20062;-59
2021/07/03 07:04:26;;;;;;;9.25;4.32;;;;;;;31.74;37.85;99052.16;4842062;29;20042;-61
2021/07/03 07:06:55;;;;;;;8.88;4.40;;;;;;;31.81;37.56;99060.22;4841896;29;20102;-62
2021/07/03 07:09:21;;;;;;;16.40;5.80;;;;;;;31.11;38.35;99048.78;4843635;29;20072;-61
2021/07/03 07:11:47;;;;;;;13.15;8.30;;;;;;;30.59;39.38;99054.66;4844640;29;20052;-61
2021/07/03 07:14:13;;;;;;;5.10;2.83;;;;;;;30.24;40.10;99053.75;4841161;29;20041;-60
2021/07/03 07:16:39;;;;;;;5.93;1.67;;;;;;;29.76;40.58;99052.66;4834375;29;20045;-61
2021/07/03 07:19:05;;;;;;;3.38;2.28;;;;;;;29.17;41.70;99057.28;4825656;29;20050;-61
2021/07/03 07:21:31;;;;;;;7.07;4.25;;;;;;;28.70;43.06;99049.59;4838757;29;20102;-62
2021/07/03 07:23:57;;;;;;;8.18;6.18;;;;;;;28.34;43.91;99048.63;4842139;29;20049;-62
2021/07/03 07:26:22;;;;;;;4.55;2.95;;;;;;;28.02;44.72;99055.88;4842249;29;20474;-61
2021/07/03 07:28:49;;;;;;;8.60;4.15;;;;;;;27.75;45.38;99051.91;4840718;29;20060;-60
2021/07/03 07:31:16;;;;;;;3.40;3.05;;;;;;;27.62;45.31;99050.84;4824632;29;20556;-62
2021/07/03 07:33:42;;;;;;;11.98;8.93;;;;;;;27.50;45.48;99045.06;4841327;29;20042;-61
2021/07/03 07:36:08;;;;;;;5.03;4.53;;;;;;;27.37;46.02;99037.59;4838302;29;20361;-61
2021/07/03 07:38:34;;;;;;;9.88;5.22;;;;;;;27.22;46.63;99044.66;4837985;29;20529;-61
2021/07/03 07:40:59;;;;;;;7.82;3.60;;;;;;;27.12;46.69;99045.88;4835121;29;20043;-62
2021/07/03 07:43:25;;;;;;;10.45;5.78;;;;;;;29.36;42.59;99054.03;4834373;29;20065;-61
2021/07/03 07:45:52;;;;;;;5.70;3.00;;;;;;;30.75;39.51;99052.69;4837146;29;20536;-60
2021/07/03 07:48:18;;;;;;;5.47;3.30;;;;;;;30.30;40.38;99047.59;4826896;29;20515;-59
2021/07/03 07:53:39;;;;;;;10.85;6.07;;;;;;;34.24;33.08;99053.38;4961011;24;20519;-62
2021/07/03 07:56:05;;;;;;;6.50;5.72;;;;;;;35.85;30.52;99056.63;4818856;29;20078;-61
2021/07/03 07:58:31;;;;;;;5.13;2.83;;;;;;;35.72;30.07;99054.09;4821943;29;20480;-61
2021/07/03 08:00:57;;;;;;;25.13;19.52;;;;;;;34.30;32.73;99047.94;4819321;29;20054;-61
2021/07/03 08:03:22;;;;;;;12.50;10.23;;;;;;;32.88;34.60;99041.19;4818959;29;20042;-63
2021/07/03 08:06:01;;;;;;;7.10;4.50;;;;;;;31.42;36.82;99050.97;4821184;29;20042;-62
2021/07/03 08:08:28;;;;;;;6.18;3.40;;;;;;;30.41;38.09;99048.91;4819196;29;20042;-61
2021/07/03 08:10:53;;;;;;;4.13;3.40;;;;;;;29.76;39.22;99041.94;4817767;29;20210;-62
2021/07/03 08:13:19;;;;;;;8.15;4.47;;;;;;;29.39;40.06;99042.13;4817752;29;20540;-60
2021/07/03 08:15:45;;;;;;;5.80;2.08;;;;;;;29.22;40.40;99046.00;4816789;29;20499;-61
2021/07/03 08:18:10;;;;;;;5.22;2.70;;;;;;;29.27;40.23;99054.31;4815262;29;20510;-60
2021/07/03 08:20:36;;;;;;;6.90;4.53;;;;;;;29.10;40.96;99052.88;4815780;29;20157;-59
2021/07/03 08:23:02;;;;;;;11.65;4.35;;;;;;;28.57;42.12;99055.59;4815917;29;20090;-60
2021/07/03 08:25:32;;;;;;;11.68;5.35;;;;;;;27.94;43.70;99058.63;4819222;29;20881;-60
2021/07/03 08:27:57;;;;;;;7.45;3.70;;;;;;;27.36;44.85;99059.13;4817431;29;20089;-60
2021/07/03 08:30:24;;;;;;;8.77;5.25;;;;;;;26.92;46.50;99066.81;4819129;29;20078;-61
2021/07/03 08:32:50;;;;;;;10.15;6.63;;;;;;;26.58;46.98;99075.03;4818053;29;20098;-60
2021/07/03 08:35:16;;;;;;;6.60;4.90;;;;;;;26.28;48.15;99068.56;4816374;29;20069;-60
2021/07/03 08:37:42;;;;;;;9.48;4.03;;;;;;;26.03;48.71;99072.19;4816912;29;20111;-59
2021/07/03 08:40:10;;;;;;;4.80;3.67;;;;;;;25.79;49.91;99072.19;4816261;29;20122;-60
2021/07/03 08:42:36;;;;;;;6.18;3.22;;;;;;;25.64;49.79;99072.00;4814993;29;20141;-60
2021/07/03 08:45:03;;;;;;;10.07;5.35;;;;;;;25.55;50.06;99081.75;4817025;29;20078;-61
2021/07/03 08:47:29;;;;;;;5.05;3.00;;;;;;;25.44;50.25;99076.72;4814766;29;20082;-60
2021/07/03 08:50:00;;;;;;;8.98;3.15;;;;;;;25.36;50.37;99082.03;4818690;29;20082;-60
2021/07/03 08:52:26;;;;;;;7.00;3.33;;;;;;;25.22;50.72;99083.47;4817137;29;20063;-61
2021/07/03 08:55:06;;;;;;;4.93;3.17;;;;;;;25.08;51.50;99089.38;4797607;29;20057;-61
2021/07/03 08:57:45;;;;;;;7.13;3.40;;;;;;;25.05;51.87;99080.88;4790133;29;20072;-58
2021/07/03 09:00:12;;;;;;;12.45;6.05;;;;;;;24.97;52.39;99076.34;4808712;29;20047;-58
2021/07/03 09:02:44;;;;;;;5.72;3.70;;;;;;;24.88;52.79;99074.66;4813195;29;20054;-59
2021/07/03 09:05:21;;;;;;;5.65;4.43;;;;;;;24.83;53.04;99068.94;4805199;29;20053;-59
2021/07/03 09:07:47;;;;;;;5.55;4.35;;;;;;;24.86;52.93;99068.66;4797229;29;20043;-60
2021/07/03 09:10:12;;;;;;;7.15;3.53;;;;;;;24.87;52.65;99079.13;4801175;29;20597;-60
2021/07/03 09:12:38;;;;;;;4.07;3.42;;;;;;;24.82;52.96;99075.25;4793486;29;20060;-59
2021/07/03 09:15:14;;;;;;;7.07;4.30;;;;;;;24.81;53.04;99078.88;4802452;29;20057;-62
2021/07/03 09:17:48;;;;;;;7.65;4.13;;;;;;;24.80;53.09;99077.25;4813367;29;20107;-58
2021/07/03 09:20:31;;;;;;;5.75;4.70;;;;;;;24.80;52.97;99077.25;4815568;29;20056;-59
2021/07/03 09:23:05;;;;;;;12.43;6.05;;;;;;;24.77;53.25;99069.56;4806665;29;20047;-59
2021/07/03 09:25:31;;;;;;;5.18;3.28;;;;;;;24.84;52.89;99066.13;4815439;29;20066;-60
2021/07/03 09:28:03;;;;;;;6.28;4.13;;;;;;;24.97;52.67;99068.38;4811564;29;20081;-60
2021/07/03 09:30:29;;;;;;;13.23;7.03;;;;;;;25.07;52.87;99070.94;4815827;29;20046;-59
2021/07/03 09:32:55;;;;;;;5.70;3.67;;;;;;;25.25;52.07;99066.34;4812741;29;20047;-61
2021/07/03 09:35:21;;;;;;;6.13;3.78;;;;;;;25.42;51.75;99067.22;4813378;29;20042;-60
2021/07/03 09:37:49;;;;;;;5.18;3.88;;;;;;;25.70;51.12;99068.66;4815324;29;20606;-59
2021/07/03 09:40:15;;;;;;;5.45;4.63;;;;;;;25.87;50.45;99049.03;4804575;29;20066;-61
2021/07/03 09:42:42;;;;;;;14.73;8.18;;;;;;;26.37;49.58;99069.41;4819317;29;20080;-59
2021/07/03 09:45:08;;;;;;;8.25;4.22;;;;;;;26.70;48.70;99078.16;4812029;29;20054;-63
2021/07/03 09:47:35;;;;;;;5.70;4.43;;;;;;;26.99;47.99;99070.47;4803263;29;20104;-59
2021/07/03 09:50:05;;;;;;;8.00;3.90;;;;;;;27.53;46.58;99073.28;4805103;29;20061;-60
2021/07/03 09:52:31;;;;;;;11.75;3.80;;;;;;;28.30;44.67;99066.88;4811761;29;20067;-60
2021/07/03 09:54:56;;;;;;;8.10;3.90;;;;;;;29.98;41.43;99072.28;4814273;29;20500;-60
2021/07/03 09:57:24;;;;;;;4.13;3.10;;;;;;;30.81;39.02;99084.13;4798082;29;20046;-61
2021/07/03 09:59:50;;;;;;;6.35;2.95;;;;;;;31.41;37.64;99076.19;4805586;29;20510;-60
2021/07/03 10:02:16;;;;;;;6.13;3.38;;;;;;;31.46;37.15;99078.28;4800872;29;20487;-59
2021/07/03 10:04:42;;;;;;;10.52;3.20;;;;;;;31.46;37.25;99073.72;4806550;29;21661;-58
2021/07/03 10:07:19;;;;;;;4.75;3.50;;;;;;;31.80;36.88;99088.13;4815883;29;20133;-61
2021/07/03 10:10:03;;;;;;;5.82;4.72;;;;;;;31.90;36.71;99075.97;4815662;29;20042;-62
2021/07/03 10:12:32;;;;;;;4.35;3.65;;;;;;;31.71;36.69;99079.44;4810061;29;20409;-59
2021/07/03 10:14:58;;;;;;;;;;;;;;;31.71;37.06;99079.44;4789048;29;20043;-60
2021/07/03 10:17:26;;;;;;;7.55;3.10;;;;;;;32.12;36.09;99079.34;4813278;29;20419;-58
2021/07/03 10:19:52;;;;;;;7.93;3.60;;;;;;;32.48;35.31;99078.09;4811890;29;20047;-62
2021/07/03 10:22:21;;;;;;;6.43;3.90;;;;;;;33.32;33.87;99078.19;4807080;29;20054;-62
2021/07/03 10:24:52;;;;;;;8.07;3.53;;;;;;;34.12;32.73;99072.16;4811285;29;20057;-60
2021/07/03 10:27:30;;;;;;;7.93;3.55;;;;;;;34.10;32.49;99068.84;4801818;29;20051;-61
2021/07/03 10:29:57;;;;;;;5.65;4.38;;;;;;;33.62;33.21;99060.41;4808342;29;20046;-62
2021/07/03 10:32:36;;;;;;;6.25;4.72;;;;;;;32.99;34.01;99057.53;4817746;29;20038;-61
2021/07/03 10:35:18;;;;;;;7.47;5.07;;;;;;;32.54;35.24;99051.19;4809235;29;20138;-60
2021/07/03 10:37:44;;;;;;;5.03;3.97;;;;;;;32.00;36.34;99055.91;4795993;29;20502;-59
2021/07/03 10:40:17;;;;;;;6.90;4.30;;;;;;;31.41;37.30;99057.38;4813492;29;20086;-60
2021/07/03 10:42:42;;;;;;;7.55;4.28;;;;;;;30.86;38.63;99052.97;4802676;29;20718;-60
2021/07/03 10:45:11;;;;;;;6.40;3.63;;;;;;;30.25;39.57;99055.38;4810640;29;20042;-61
2021/07/03 10:47:36;;;;;;;4.78;3.90;;;;;;;29.84;40.29;99057.88;4794302;29;20051;-61
2021/07/03 10:50:17;;;;;;;8.70;4.47;;;;;;;29.37;41.63;99060.22;4797909;29;20050;-60
2021/07/03 10:53:15;;;;;;;5.03;4.05;;;;;;;29.13;41.86;99064.03;5236764;24;20026;31
2021/07/03 10:55:41;;;;;;;6.90;4.00;;;;;;;28.92;42.01;99055.91;4754492;30;20405;-60
2021/07/03 10:58:19;;;;;;;5.60;3.75;;;;;;;28.90;41.84;99050.75;4762632;30;20112;-58
2021/07/03 11:00:49;;;;;;;6.80;3.72;;;;;;;28.92;41.93;99061.28;4732377;30;20048;-59
2021/07/03 11:03:24;;;;;;;6.25;3.85;;;;;;;28.92;42.05;99066.63;4745592;30;20508;-59
2021/07/03 11:05:51;;;;;;;6.43;4.25;;;;;;;28.81;42.75;99059.88;4751544;30;20193;-60
2021/07/03 11:08:20;;;;;;;4.75;3.88;;;;;;;28.71;42.74;99064.66;4727338;30;20048;-59
2021/07/03 11:10:48;;;;;;;4.05;3.33;;;;;;;28.54;42.73;99066.66;4736135;30;20529;-60
2021/07/03 11:24:48;;;;;;;3.03;2.70;;;;;;;27.86;43.27;99052.50;5035833;23;20054;-60
2021/07/03 11:27:27;;;;;;;5.25;3.10;;;;;;;27.85;43.59;99062.34;4813122;29;20186;-61
2021/07/03 11:29:54;;;;;;;4.97;3.50;;;;;;;27.82;43.17;99060.06;4816767;29;20058;-60
2021/07/03 11:32:20;;;;;;;8.68;4.85;;;;;;;27.90;43.43;99075.22;4816908;29;20410;-63
2021/07/03 11:34:55;;;;;;;7.90;3.65;;;;;;;27.79;43.88;99063.09;4817072;29;20042;-60
2021/07/03 11:37:47;;;;;;;10.23;5.85;;;;;;;27.51;44.13;99065.44;4819700;29;20049;-61
2021/07/03 11:40:17;;;;;;;17.98;13.27;;;;;;;27.35;44.63;99062.81;4814856;29;20087;-68
2021/07/03 11:42:46;;;;;;;9.13;5.10;;;;;;;27.25;45.28;99067.53;4822199;29;20057;-61
2021/07/03 11:45:18;;;;;;;9.23;5.72;;;;;;;27.20;45.59;99064.53;4820696;29;20077;-60
2021/07/03 11:47:47;;;;;;;16.52;12.13;;;;;;;27.19;45.81;99061.03;4813620;29;20151;-60
2021/07/03 11:50:26;;;;;;;;;;;;;;;27.16;46.02;99060.56;4822528;29;20070;-62
2021/07/03 11:52:54;;;;;;;8.00;4.93;;;;;;;27.15;46.23;99061.56;4814823;29;19925;-64
2021/07/03 11:55:37;;;;;;;12.20;7.73;;;;;;;27.11;45.96;99060.25;4797836;29;20395;-61
2021/07/03 11:58:04;;;;;;;7.28;4.15;;;;;;;27.09;45.61;99060.41;4822554;29;20050;-61